Accueil
METAR-TAF:

METAR-TAF

Aéroports :

Longyearbyen, Norvège

Aéroport de Longyearbyen

latitude: 78-15N, longitude: 015-28E, altitude: 2 m

Observation

Le bulletin a été fait il y a 1 heure et 1 minutes, à 00:50 UTC
Vent 11 kt de ouest/sud-ouest
Température 2°C
Humidité 80%
Pression 1015 hPa
Visibilité 10 km ou plus
Quelques nuages à une hauteur de 2000 ft
Nuages épars à une hauteur de 20000 ft

METAR: ENSB 190050Z 24011KT 9999 FEW020 SCT200 02/M01 Q1015 RMK WIND 1400FT 24008KT

Heure: 03:51 (01:51 UTC)

Prévision

Prévision valable du 19 à 00 UTC au 19 à 24 UTC
Vent 8 kt de ouest
Visibilité 10 km ou plus
Quelques nuages à une hauteur de 2000 ft
Nuages épars à une hauteur de 3000 ft

TAF: ENSB 1900/1924 27008KT 9999 FEW020 SCT030

Observations et prévisions météorologiques de plus de 4000 aéroports (messages METAR et TAF).

Les stations disponibles sont représentées par des disques jaunes et rouges sur la carte.

Passer la souris dessus pour voir le nom de la station.

Cliquer dessus pour voir les observations et prévisions météorologiques.

Pour changer de carte: cliquez sur les boutons verts avec une croix noire pour zoomer, sur le bouton vert avec un tiret pour effectuer un zoom arrière, ou sur les flèches vertes pour les cartes adjacentes.


METAR-TAF: